^^
Saratoga-Weather Station Historical Data
Daily Summary for July 31, 2020 Units:  Both    English   Metric
Daily Weekly Monthly Yearly Custom
  High: Low: Average:
Temperature: 39.7 °F /  4.3 °C 34.3 °F /  1.3 °C 36.9 °F /  2.7 °C
Dew Point: 38.1 °F /  3.4 °C 33.1 °F /  0.6 °C 35.2 °F /  1.8 °C
Humidity: 96% 91% 94%
Wind Speed: 6.9mph /  11.1km/h - 1.8mph /  2.9km/h
Wind Gust: 9mph /  14.5km/h - -
Wind- - SE
Pressure: 29.7 in /  1006.1 hPa 29.5 in /  1000.3 hPa -
Precipitation: 0.2 in /  5.1 mm    
Historical Graphs
 
 
Tabular Data for July 31, 2020
Time Temperature Dew Point Pressure Wind Wind Speed Wind Gust Humidity Rainfall Rate (Hourly) solar
00:03 37.2 °F /  2.9 °C 35.4 °F /  1.9 °C 29.7in /  1006.1hPa Calm     93% 0in /  0.0mm 0 W/m2
00:08 37.2 °F /  2.9 °C 35.4 °F /  1.9 °C 29.7in /  1006.1hPa WNW 2mph /  3.2km/h 3mph /  4.8km/h 93% 0in /  0.0mm 0 W/m2
00:13 37.2 °F /  2.9 °C 35.4 °F /  1.9 °C 29.7in /  1006.1hPa Calm   3mph /  4.8km/h 93% 0in /  0.0mm 0 W/m2
00:18 37.2 °F /  2.9 °C 35.4 °F /  1.9 °C 29.7in /  1006.1hPa NW 4mph /  6.4km/h 4mph /  6.4km/h 93% 0in /  0.0mm 0 W/m2
00:23 37.2 °F /  2.9 °C 35.4 °F /  1.9 °C 29.7in /  1005.8hPa NW 0.9mph /  1.4km/h 2mph /  3.2km/h 93% 0in /  0.0mm 0 W/m2
00:28 37.2 °F /  2.9 °C 35.1 °F /  1.7 °C 29.7in /  1005.8hPa NNW 2mph /  3.2km/h 3mph /  4.8km/h 92% 0in /  0.0mm 0 W/m2
00:33 37.2 °F /  2.9 °C 35.1 °F /  1.7 °C 29.7in /  1005.8hPa NNE 0.9mph /  1.4km/h 3mph /  4.8km/h 92% 0in /  0.0mm 0 W/m2
00:38 37.2 °F /  2.9 °C 35.1 °F /  1.7 °C 29.7in /  1006.1hPa Calm   4mph /  6.4km/h 92% 0in /  0.0mm 0 W/m2
00:43 37.2 °F /  2.9 °C 35.1 °F /  1.7 °C 29.7in /  1005.8hPa NE 0.9mph /  1.4km/h 4mph /  6.4km/h 92% 0in /  0.0mm 0 W/m2
00:48 37.2 °F /  2.9 °C 35.1 °F /  1.7 °C 29.7in /  1005.8hPa ENE 2mph /  3.2km/h 3mph /  4.8km/h 92% 0in /  0.0mm 0 W/m2
00:53 37.2 °F /  2.9 °C 35.1 °F /  1.7 °C 29.7in /  1005.8hPa NNW 2.9mph /  4.7km/h 3mph /  4.8km/h 92% 0in /  0.0mm 0 W/m2
00:58 37.2 °F /  2.9 °C 35.1 °F /  1.7 °C 29.7in /  1005.8hPa WSW 0.9mph /  1.4km/h 5mph /  8km/h 92% 0in /  0.0mm 0 W/m2
01:03 37.2 °F /  2.9 °C 35.1 °F /  1.7 °C 29.7in /  1005.8hPa NNW 2mph /  3.2km/h 4mph /  6.4km/h 92% 0in /  0.0mm 0 W/m2
01:08 37.2 °F /  2.9 °C 35.1 °F /  1.7 °C 29.7in /  1005.8hPa Calm   2mph /  3.2km/h 92% 0in /  0.0mm 0 W/m2
01:13 37.2 °F /  2.9 °C 35.1 °F /  1.7 °C 29.7in /  1005.4hPa WNW 2mph /  3.2km/h 5mph /  8km/h 92% 0in /  0.0mm 0 W/m2
01:18 37.2 °F /  2.9 °C 35.1 °F /  1.7 °C 29.7in /  1005.4hPa ENE 0.9mph /  1.4km/h 6mph /  9.7km/h 92% 0in /  0.0mm 0 W/m2
01:23 37.2 °F /  2.9 °C 34.9 °F /  1.6 °C 29.7in /  1005.4hPa NNW 0.9mph /  1.4km/h 2mph /  3.2km/h 91% 0in /  0.0mm 0 W/m2
01:28 37.2 °F /  2.9 °C 34.9 °F /  1.6 °C 29.7in /  1005.4hPa NE 2mph /  3.2km/h 6mph /  9.7km/h 91% 0in /  0.0mm 0 W/m2
01:33 37.2 °F /  2.9 °C 34.9 °F /  1.6 °C 29.7in /  1005.4hPa ENE 0.9mph /  1.4km/h 2mph /  3.2km/h 91% 0in /  0.0mm 0 W/m2
01:39 37.2 °F /  2.9 °C 35.1 °F /  1.7 °C 29.7in /  1005.4hPa East 0.9mph /  1.4km/h 4mph /  6.4km/h 92% 0in /  0.0mm 0 W/m2
01:44 37 °F /  2.8 °C 34.9 °F /  1.6 °C 29.7in /  1005.4hPa North 0.9mph /  1.4km/h 3mph /  4.8km/h 92% 0in /  0.0mm 0 W/m2
01:49 37 °F /  2.8 °C 34.9 °F /  1.6 °C 29.7in /  1005.1hPa NE 2mph /  3.2km/h 5mph /  8km/h 92% 0in /  0.0mm 0 W/m2
01:54 36.9 °F /  2.7 °C 34.7 °F /  1.5 °C 29.7in /  1005.1hPa ENE 2mph /  3.2km/h 4mph /  6.4km/h 92% 0.01in /  0.2mm 0 W/m2
01:59 36.7 °F /  2.6 °C 34.5 °F /  1.4 °C 29.7in /  1005.1hPa NNE 2mph /  3.2km/h 5mph /  8km/h 92% 0.02in /  0.5mm 0 W/m2
02:04 36.7 °F /  2.6 °C 34.5 °F /  1.4 °C 29.7in /  1005.1hPa Calm   2mph /  3.2km/h 92% 0.02in /  0.5mm 0 W/m2
02:09 36.5 °F /  2.5 °C 34.7 °F /  1.5 °C 29.7in /  1004.7hPa ENE 2mph /  3.2km/h 4mph /  6.4km/h 93% 0.02in /  0.5mm 0 W/m2
02:14 36.5 °F /  2.5 °C 34.7 °F /  1.5 °C 29.7in /  1004.7hPa Calm   2mph /  3.2km/h 93% 0.02in /  0.5mm 0 W/m2
02:19 36.3 °F /  2.4 °C 34.5 °F /  1.4 °C 29.7in /  1004.7hPa Calm   1mph /  1.6km/h 93% 0.02in /  0.5mm 0 W/m2
02:24 36.5 °F /  2.5 °C 34.7 °F /  1.5 °C 29.7in /  1004.7hPa NE 0.9mph /  1.4km/h 3mph /  4.8km/h 93% 0.02in /  0.5mm 0 W/m2
02:29 36.5 °F /  2.5 °C 34.7 °F /  1.5 °C 29.7in /  1004.7hPa Calm   2mph /  3.2km/h 93% 0.02in /  0.5mm 0 W/m2
02:34 36.5 °F /  2.5 °C 34.7 °F /  1.5 °C 29.7in /  1004.7hPa NNE 2mph /  3.2km/h 3mph /  4.8km/h 93% 0.02in /  0.5mm 0 W/m2
02:39 36.7 °F /  2.6 °C 34.9 °F /  1.6 °C 29.7in /  1004.7hPa NE 0.9mph /  1.4km/h 3mph /  4.8km/h 93% 0.02in /  0.5mm 0 W/m2
02:44 36.7 °F /  2.6 °C 34.9 °F /  1.6 °C 29.7in /  1004.7hPa NNE 0.9mph /  1.4km/h 2mph /  3.2km/h 93% 0.02in /  0.5mm 0 W/m2
02:49 36.7 °F /  2.6 °C 34.9 °F /  1.6 °C 29.7in /  1004.7hPa East 2mph /  3.2km/h 3mph /  4.8km/h 93% 0.02in /  0.5mm 0 W/m2
02:54 36.7 °F /  2.6 °C 34.9 °F /  1.6 °C 29.7in /  1004.4hPa NE 2mph /  3.2km/h 4mph /  6.4km/h 93% 0.01in /  0.2mm 0 W/m2
02:59 36.7 °F /  2.6 °C 34.9 °F /  1.6 °C 29.7in /  1004.4hPa ENE 2mph /  3.2km/h 4mph /  6.4km/h 93% 0in /  0.0mm 0 W/m2
03:04 36.7 °F /  2.6 °C 34.9 °F /  1.6 °C 29.7in /  1004.4hPa NE 2.9mph /  4.7km/h 3mph /  4.8km/h 93% 0in /  0.0mm 0 W/m2
03:09 36.7 °F /  2.6 °C 34.9 °F /  1.6 °C 29.7in /  1004.4hPa NE 0.9mph /  1.4km/h 3mph /  4.8km/h 93% 0in /  0.0mm 0 W/m2
03:14 36.9 °F /  2.7 °C 35.1 °F /  1.7 °C 29.7in /  1004.4hPa ENE 0.9mph /  1.4km/h 4mph /  6.4km/h 93% 0in /  0.0mm 0 W/m2
03:19 36.9 °F /  2.7 °C 35.1 °F /  1.7 °C 29.7in /  1004.4hPa ENE 0.9mph /  1.4km/h 4mph /  6.4km/h 93% 0in /  0.0mm 0 W/m2
03:24 36.9 °F /  2.7 °C 35.1 °F /  1.7 °C 29.7in /  1004.4hPa ESE 0.9mph /  1.4km/h 4mph /  6.4km/h 93% 0in /  0.0mm 0 W/m2
03:29 36.7 °F /  2.6 °C 34.9 °F /  1.6 °C 29.7in /  1004.4hPa SE 2mph /  3.2km/h 2mph /  3.2km/h 93% 0in /  0.0mm 0 W/m2
03:34 36.7 °F /  2.6 °C 34.9 °F /  1.6 °C 29.7in /  1004.1hPa ENE 0.9mph /  1.4km/h 4mph /  6.4km/h 93% 0in /  0.0mm 0 W/m2
03:39 36.7 °F /  2.6 °C 34.9 °F /  1.6 °C 29.7in /  1004.1hPa Calm   3mph /  4.8km/h 93% 0in /  0.0mm 0 W/m2
03:44 36.7 °F /  2.6 °C 34.9 °F /  1.6 °C 29.7in /  1004.1hPa Calm   4mph /  6.4km/h 93% 0in /  0.0mm 0 W/m2
03:49 36.7 °F /  2.6 °C 34.9 °F /  1.6 °C 29.7in /  1004.1hPa Calm   3mph /  4.8km/h 93% 0in /  0.0mm 0 W/m2
03:54 36.7 °F /  2.6 °C 34.9 °F /  1.6 °C 29.7in /  1004.1hPa NE 0.9mph /  1.4km/h 1mph /  1.6km/h 93% 0in /  0.0mm 0 W/m2
03:59 36.7 °F /  2.6 °C 34.9 °F /  1.6 °C 29.7in /  1004.1hPa Calm   2mph /  3.2km/h 93% 0in /  0.0mm 0 W/m2
04:04 36.7 °F /  2.6 °C 34.9 °F /  1.6 °C 29.7in /  1004.1hPa Calm   2mph /  3.2km/h 93% 0in /  0.0mm 0 W/m2
04:09 36.7 °F /  2.6 °C 34.9 °F /  1.6 °C 29.7in /  1004.1hPa East 0.9mph /  1.4km/h 3mph /  4.8km/h 93% 0.01in /  0.2mm 0 W/m2
04:14 36.5 °F /  2.5 °C 34.7 °F /  1.5 °C 29.6in /  1003.7hPa East 0.9mph /  1.4km/h 6mph /  9.7km/h 93% 0.01in /  0.2mm 0 W/m2
04:19 36.3 °F /  2.4 °C 34.5 °F /  1.4 °C 29.6in /  1003.7hPa ENE 4mph /  6.4km/h 4mph /  6.4km/h 93% 0.02in /  0.5mm 0 W/m2
04:24 36.3 °F /  2.4 °C 34.5 °F /  1.4 °C 29.6in /  1003.7hPa East 2mph /  3.2km/h 6mph /  9.7km/h 93% 0.02in /  0.5mm 0 W/m2
04:29 36.3 °F /  2.4 °C 34.5 °F /  1.4 °C 29.6in /  1003.7hPa East 0.9mph /  1.4km/h 3mph /  4.8km/h 93% 0.02in /  0.5mm 0 W/m2
04:34 36.3 °F /  2.4 °C 34.5 °F /  1.4 °C 29.6in /  1003.4hPa Calm   3mph /  4.8km/h 93% 0.02in /  0.5mm 0 W/m2
04:39 36.3 °F /  2.4 °C 34.5 °F /  1.4 °C 29.6in /  1003.4hPa East 2mph /  3.2km/h 3mph /  4.8km/h 93% 0.02in /  0.5mm 0 W/m2
04:44 36.3 °F /  2.4 °C 34.5 °F /  1.4 °C 29.6in /  1003.4hPa Calm   1mph /  1.6km/h 93% 0.02in /  0.5mm 0 W/m2
04:49 36.3 °F /  2.4 °C 34.5 °F /  1.4 °C 29.6in /  1003.4hPa ENE 2.9mph /  4.7km/h 6mph /  9.7km/h 93% 0.02in /  0.5mm 0 W/m2
04:54 36.3 °F /  2.4 °C 34.5 °F /  1.4 °C 29.6in /  1003.0hPa NE 0.9mph /  1.4km/h 3mph /  4.8km/h 93% 0.02in /  0.5mm 0 W/m2
04:59 36.3 °F /  2.4 °C 34.5 °F /  1.4 °C 29.6in /  1003.0hPa ENE 2mph /  3.2km/h 5mph /  8km/h 93% 0.02in /  0.5mm 0 W/m2
05:04 36.3 °F /  2.4 °C 34.2 °F /  1.2 °C 29.6in /  1003.0hPa East 4mph /  6.4km/h 7mph /  11.3km/h 92% 0.02in /  0.5mm 0 W/m2
05:09 36.1 °F /  2.3 °C 34 °F /  1.1 °C 29.6in /  1003.0hPa SE 2mph /  3.2km/h 4mph /  6.4km/h 92% 0.02in /  0.5mm 0 W/m2
05:14 36.1 °F /  2.3 °C 34.3 °F /  1.3 °C 29.6in /  1003.0hPa East 2mph /  3.2km/h 3mph /  4.8km/h 93% 0.02in /  0.5mm 0 W/m2
05:19 36 °F /  2.2 °C 34.2 °F /  1.2 °C 29.6in /  1002.7hPa ENE 2mph /  3.2km/h 3mph /  4.8km/h 93% 0.02in /  0.5mm 0 W/m2
05:24 36 °F /  2.2 °C 34.2 °F /  1.2 °C 29.6in /  1002.7hPa East 2mph /  3.2km/h 4mph /  6.4km/h 93% 0.02in /  0.5mm 0 W/m2
05:29 35.8 °F /  2.1 °C 34 °F /  1.1 °C 29.6in /  1002.4hPa ENE 2mph /  3.2km/h 7mph /  11.3km/h 93% 0.02in /  0.5mm 0 W/m2
05:34 35.6 °F /  2 °C 33.8 °F /  1 °C 29.6in /  1002.4hPa Calm   2mph /  3.2km/h 93% 0.02in /  0.5mm 0 W/m2
05:39 35.6 °F /  2 °C 34 °F /  1.1 °C 29.6in /  1002.4hPa ESE 2.9mph /  4.7km/h 3mph /  4.8km/h 94% 0.02in /  0.5mm 0 W/m2
05:44 35.4 °F /  1.9 °C 33.8 °F /  1 °C 29.6in /  1002.4hPa ESE 0.9mph /  1.4km/h 3mph /  4.8km/h 94% 0.02in /  0.5mm 0 W/m2
05:49 35.4 °F /  1.9 °C 33.8 °F /  1 °C 29.6in /  1002.0hPa East 2mph /  3.2km/h 4mph /  6.4km/h 94% 0.02in /  0.5mm 0 W/m2
05:54 35.4 °F /  1.9 °C 33.8 °F /  1 °C 29.6in /  1002.4hPa ENE 2.9mph /  4.7km/h 4mph /  6.4km/h 94% 0.02in /  0.5mm 0 W/m2
05:59 35.2 °F /  1.8 °C 33.6 °F /  0.9 °C 29.6in /  1002.0hPa ENE 0.9mph /  1.4km/h 6mph /  9.7km/h 94% 0.02in /  0.5mm 0 W/m2
06:04 35.2 °F /  1.8 °C 33.6 °F /  0.9 °C 29.6in /  1002.0hPa SE 2.9mph /  4.7km/h 3mph /  4.8km/h 94% 0.02in /  0.5mm 0 W/m2
06:09 35.2 °F /  1.8 °C 33.6 °F /  0.9 °C 29.6in /  1002.0hPa NE 2mph /  3.2km/h 5mph /  8km/h 94% 0.02in /  0.5mm 0 W/m2
06:14 35.2 °F /  1.8 °C 34 °F /  1.1 °C 29.6in /  1002.0hPa NE 2.9mph /  4.7km/h 3mph /  4.8km/h 95% 0.02in /  0.5mm 0 W/m2
06:19 35.4 °F /  1.9 °C 34.2 °F /  1.2 °C 29.6in /  1002.0hPa NE 2mph /  3.2km/h 2mph /  3.2km/h 95% 0.02in /  0.5mm 0 W/m2
06:24 35.4 °F /  1.9 °C 34.2 °F /  1.2 °C 29.6in /  1002.0hPa North 2mph /  3.2km/h 4mph /  6.4km/h 95% 0.02in /  0.5mm 0 W/m2
06:29 35.4 °F /  1.9 °C 34.2 °F /  1.2 °C 29.6in /  1002.0hPa NE 2mph /  3.2km/h 3mph /  4.8km/h 95% 0.01in /  0.2mm 0 W/m2
06:34 35.4 °F /  1.9 °C 34.2 °F /  1.2 °C 29.6in /  1002.0hPa ENE 2.9mph /  4.7km/h 3mph /  4.8km/h 95% 0.01in /  0.2mm 0 W/m2
06:39 35.4 °F /  1.9 °C 34.2 °F /  1.2 °C 29.6in /  1002.0hPa NE 2mph /  3.2km/h 7mph /  11.3km/h 95% 0.01in /  0.2mm 0 W/m2
06:44 35.2 °F /  1.8 °C 34 °F /  1.1 °C 29.6in /  1002.0hPa Calm   8mph /  12.9km/h 95% 0.02in /  0.5mm 0 W/m2
06:49 35.1 °F /  1.7 °C 33.4 °F /  0.8 °C 29.6in /  1001.7hPa ESE 0.9mph /  1.4km/h 3mph /  4.8km/h 94% 0.02in /  0.5mm 0 W/m2
06:54 35.1 °F /  1.7 °C 33.4 °F /  0.8 °C 29.6in /  1002.0hPa East 2mph /  3.2km/h 6mph /  9.7km/h 94% 0.03in /  0.8mm 0 W/m2
06:59 35.1 °F /  1.7 °C 33.4 °F /  0.8 °C 29.6in /  1002.0hPa NNE 4mph /  6.4km/h 5mph /  8km/h 94% 0.03in /  0.8mm 0 W/m2
07:04 35.1 °F /  1.7 °C 33.8 °F /  1 °C 29.6in /  1002.0hPa North 0.9mph /  1.4km/h 6mph /  9.7km/h 95% 0.03in /  0.8mm 0 W/m2
07:09 35.1 °F /  1.7 °C 33.8 °F /  1 °C 29.6in /  1002.0hPa NE 2.9mph /  4.7km/h 7mph /  11.3km/h 95% 0.02in /  0.5mm 0 W/m2
07:14 35.2 °F /  1.8 °C 34 °F /  1.1 °C 29.6in /  1002.0hPa ENE 2mph /  3.2km/h 6mph /  9.7km/h 95% 0.03in /  0.8mm 0 W/m2
07:19 35.2 °F /  1.8 °C 33.6 °F /  0.9 °C 29.6in /  1002.0hPa NNE 4mph /  6.4km/h 4mph /  6.4km/h 94% 0.03in /  0.8mm 0 W/m2
07:24 35.2 °F /  1.8 °C 33.6 °F /  0.9 °C 29.6in /  1002.0hPa NE 4mph /  6.4km/h 6mph /  9.7km/h 94% 0.03in /  0.8mm 0 W/m2
07:29 35.2 °F /  1.8 °C 33.6 °F /  0.9 °C 29.6in /  1001.7hPa ENE 2.9mph /  4.7km/h 4mph /  6.4km/h 94% 0.03in /  0.8mm 0 W/m2
07:34 35.2 °F /  1.8 °C 33.6 °F /  0.9 °C 29.6in /  1001.7hPa NE 4mph /  6.4km/h 6mph /  9.7km/h 94% 0.03in /  0.8mm 0 W/m2
07:39 35.2 °F /  1.8 °C 34 °F /  1.1 °C 29.6in /  1001.7hPa East 2mph /  3.2km/h 6mph /  9.7km/h 95% 0.03in /  0.8mm 0 W/m2
07:44 35.2 °F /  1.8 °C 34 °F /  1.1 °C 29.6in /  1001.7hPa East 2.9mph /  4.7km/h 6mph /  9.7km/h 95% 0.03in /  0.8mm 0 W/m2
07:49 35.2 °F /  1.8 °C 34 °F /  1.1 °C 29.6in /  1001.7hPa ENE 2.9mph /  4.7km/h 8mph /  12.9km/h 95% 0.02in /  0.5mm 0 W/m2
07:54 35.2 °F /  1.8 °C 34 °F /  1.1 °C 29.6in /  1001.7hPa NE 2mph /  3.2km/h 4mph /  6.4km/h 95% 0.02in /  0.5mm 0 W/m2
07:59 35.2 °F /  1.8 °C 34 °F /  1.1 °C 29.6in /  1001.7hPa ESE 2.9mph /  4.7km/h 8mph /  12.9km/h 95% 0.02in /  0.5mm 0 W/m2
08:04 35.2 °F /  1.8 °C 34 °F /  1.1 °C 29.6in /  1001.7hPa East 2.9mph /  4.7km/h 5mph /  8km/h 95% 0.02in /  0.5mm 0 W/m2
08:09 35.2 °F /  1.8 °C 34 °F /  1.1 °C 29.6in /  1001.7hPa ESE 0.9mph /  1.4km/h 6mph /  9.7km/h 95% 0.02in /  0.5mm 0 W/m2
08:14 35.2 °F /  1.8 °C 34 °F /  1.1 °C 29.6in /  1001.7hPa ENE 2mph /  3.2km/h 5mph /  8km/h 95% 0.02in /  0.5mm 0 W/m2
08:19 35.1 °F /  1.7 °C 33.8 °F /  1 °C 29.6in /  1001.7hPa East 2mph /  3.2km/h 8mph /  12.9km/h 95% 0.02in /  0.5mm 0 W/m2
08:24 35.1 °F /  1.7 °C 33.8 °F /  1 °C 29.6in /  1001.7hPa ENE 0.9mph /  1.4km/h 6mph /  9.7km/h 95% 0.02in /  0.5mm 0 W/m2
08:29 34.9 °F /  1.6 °C 33.6 °F /  0.9 °C 29.6in /  1001.7hPa East 0.9mph /  1.4km/h 7mph /  11.3km/h 95% 0.03in /  0.8mm 0 W/m2
08:34 34.7 °F /  1.5 °C 33.4 °F /  0.8 °C 29.6in /  1001.7hPa East 0.9mph /  1.4km/h 2mph /  3.2km/h 95% 0.04in /  1.0mm 0 W/m2
08:39 34.7 °F /  1.5 °C 33.4 °F /  0.8 °C 29.6in /  1002.0hPa NE 4mph /  6.4km/h 4mph /  6.4km/h 95% 0.04in /  1.0mm 0 W/m2
08:44 34.5 °F /  1.4 °C 33.3 °F /  0.7 °C 29.6in /  1002.0hPa NE 2mph /  3.2km/h 3mph /  4.8km/h 95% 0.03in /  0.8mm 0 W/m2
08:49 34.5 °F /  1.4 °C 33.3 °F /  0.7 °C 29.6in /  1001.7hPa NE 2mph /  3.2km/h 3mph /  4.8km/h 95% 0.04in /  1.0mm 0 W/m2
08:54 34.5 °F /  1.4 °C 33.3 °F /  0.7 °C 29.6in /  1001.7hPa NE 0.9mph /  1.4km/h 4mph /  6.4km/h 95% 0.04in /  1.0mm 0 W/m2
08:59 34.3 °F /  1.3 °C 33.1 °F /  0.6 °C 29.6in /  1001.7hPa ENE 2.9mph /  4.7km/h 3mph /  4.8km/h 95% 0.05in /  1.3mm 0 W/m2
09:04 34.3 °F /  1.3 °C 33.1 °F /  0.6 °C 29.6in /  1001.7hPa NE 2mph /  3.2km/h 4mph /  6.4km/h 95% 0.05in /  1.3mm 0 W/m2
09:09 34.3 °F /  1.3 °C 33.1 °F /  0.6 °C 29.6in /  1001.7hPa North 2mph /  3.2km/h 3mph /  4.8km/h 95% 0.05in /  1.3mm 0 W/m2
09:14 34.5 °F /  1.4 °C 33.3 °F /  0.7 °C 29.6in /  1001.7hPa ENE 2.9mph /  4.7km/h 4mph /  6.4km/h 95% 0.05in /  1.3mm 0 W/m2
09:19 34.5 °F /  1.4 °C 33.3 °F /  0.7 °C 29.6in /  1001.7hPa East 2.9mph /  4.7km/h 4mph /  6.4km/h 95% 0.04in /  1.0mm 0 W/m2
09:24 34.7 °F /  1.5 °C 33.4 °F /  0.8 °C 29.6in /  1001.7hPa ENE 0.9mph /  1.4km/h 6mph /  9.7km/h 95% 0.04in /  1.0mm 0 W/m2
09:29 34.5 °F /  1.4 °C 33.3 °F /  0.7 °C 29.6in /  1001.7hPa East 2mph /  3.2km/h 2mph /  3.2km/h 95% 0.04in /  1.0mm 0 W/m2
09:34 34.5 °F /  1.4 °C 33.3 °F /  0.7 °C 29.6in /  1001.7hPa NE 0.9mph /  1.4km/h 6mph /  9.7km/h 95% 0.03in /  0.8mm 5 W/m2
09:39 34.3 °F /  1.3 °C 33.1 °F /  0.6 °C 29.6in /  1001.7hPa ENE 0.9mph /  1.4km/h 4mph /  6.4km/h 95% 0.04in /  1.0mm 9 W/m2
09:44 34.3 °F /  1.3 °C 33.1 °F /  0.6 °C 29.6in /  1001.7hPa ENE 2.9mph /  4.7km/h 4mph /  6.4km/h 95% 0.04in /  1.0mm 11 W/m2
09:49 34.3 °F /  1.3 °C 33.1 °F /  0.6 °C 29.6in /  1001.7hPa ENE 0.9mph /  1.4km/h 3mph /  4.8km/h 95% 0.04in /  1.0mm 18 W/m2
09:54 34.3 °F /  1.3 °C 33.1 °F /  0.6 °C 29.6in /  1001.7hPa Calm   3mph /  4.8km/h 95% 0.05in /  1.3mm 19 W/m2
09:59 34.3 °F /  1.3 °C 33.1 °F /  0.6 °C 29.6in /  1001.7hPa ESE 0.9mph /  1.4km/h 4mph /  6.4km/h 95% 0.04in /  1.0mm 26 W/m2
10:04 34.3 °F /  1.3 °C 33.1 °F /  0.6 °C 29.6in /  1001.7hPa NE 2.9mph /  4.7km/h 5mph /  8km/h 95% 0.05in /  1.3mm 30 W/m2
10:09 34.5 °F /  1.4 °C 33.3 °F /  0.7 °C 29.6in /  1001.7hPa NE 2mph /  3.2km/h 3mph /  4.8km/h 95% 0.04in /  1.0mm 21 W/m2
10:14 34.5 °F /  1.4 °C 33.3 °F /  0.7 °C 29.6in /  1001.7hPa NNE 0.9mph /  1.4km/h 2mph /  3.2km/h 95% 0.04in /  1.0mm 25 W/m2
10:19 34.7 °F /  1.5 °C 33.6 °F /  0.9 °C 29.6in /  1001.7hPa North 0.9mph /  1.4km/h 2mph /  3.2km/h 96% 0.04in /  1.0mm 26 W/m2
10:24 34.9 °F /  1.6 °C 33.8 °F /  1 °C 29.6in /  1001.7hPa NE 2.9mph /  4.7km/h 3mph /  4.8km/h 96% 0.04in /  1.0mm 25 W/m2
10:29 35.1 °F /  1.7 °C 34 °F /  1.1 °C 29.6in /  1001.7hPa NE 4mph /  6.4km/h 4mph /  6.4km/h 96% 0.03in /  0.8mm 25 W/m2
10:34 35.2 °F /  1.8 °C 34.2 °F /  1.2 °C 29.6in /  1001.7hPa NE 0.9mph /  1.4km/h 4mph /  6.4km/h 96% 0.03in /  0.8mm 30 W/m2
10:39 35.4 °F /  1.9 °C 34.3 °F /  1.3 °C 29.6in /  1001.7hPa NNW 2mph /  3.2km/h 3mph /  4.8km/h 96% 0.02in /  0.5mm 33 W/m2
10:44 35.8 °F /  2.1 °C 34.7 °F /  1.5 °C 29.6in /  1001.7hPa NNE 2mph /  3.2km/h 3mph /  4.8km/h 96% 0.02in /  0.5mm 28 W/m2
10:49 36 °F /  2.2 °C 34.9 °F /  1.6 °C 29.6in /  1001.7hPa NW 2mph /  3.2km/h 3mph /  4.8km/h 96% 0.02in /  0.5mm 21 W/m2
10:54 36.1 °F /  2.3 °C 35.1 °F /  1.7 °C 29.6in /  1001.7hPa ENE 2mph /  3.2km/h 3mph /  4.8km/h 96% 0.01in /  0.2mm 25 W/m2
10:59 36.1 °F /  2.3 °C 34.9 °F /  1.6 °C 29.6in /  1001.7hPa NNE 0.9mph /  1.4km/h 3mph /  4.8km/h 95% 0.01in /  0.2mm 42 W/m2
11:04 36.3 °F /  2.4 °C 35.1 °F /  1.7 °C 29.6in /  1001.7hPa North 0.9mph /  1.4km/h 3mph /  4.8km/h 95% 0in /  0.0mm 33 W/m2
11:09 36.5 °F /  2.5 °C 35.2 °F /  1.8 °C 29.6in /  1001.7hPa NE 4mph /  6.4km/h 4mph /  6.4km/h 95% 0in /  0.0mm 30 W/m2
11:14 36.7 °F /  2.6 °C 35.4 °F /  1.9 °C 29.6in /  1001.4hPa NE 2mph /  3.2km/h 6mph /  9.7km/h 95% 0in /  0.0mm 58 W/m2
11:19 36.9 °F /  2.7 °C 35.6 °F /  2 °C 29.6in /  1001.4hPa NNE 0.9mph /  1.4km/h 4mph /  6.4km/h 95% 0in /  0.0mm 58 W/m2
11:24 37 °F /  2.8 °C 35.8 °F /  2.1 °C 29.6in /  1001.4hPa NE 2mph /  3.2km/h 6mph /  9.7km/h 95% 0in /  0.0mm 58 W/m2
11:29 37 °F /  2.8 °C 35.8 °F /  2.1 °C 29.6in /  1001.4hPa North 0.9mph /  1.4km/h 3mph /  4.8km/h 95% 0in /  0.0mm 54 W/m2
11:35 37.2 °F /  2.9 °C 36 °F /  2.2 °C 29.6in /  1001.4hPa North 2.9mph /  4.7km/h 3mph /  4.8km/h 95% 0in /  0.0mm 51 W/m2
11:40 37.4 °F /  3 °C 36.1 °F /  2.3 °C 29.6in /  1001.4hPa NNW 2mph /  3.2km/h 2mph /  3.2km/h 95% 0in /  0.0mm 46 W/m2
11:45 37.6 °F /  3.1 °C 36.3 °F /  2.4 °C 29.6in /  1001.4hPa NW 0.9mph /  1.4km/h 4mph /  6.4km/h 95% 0in /  0.0mm 35 W/m2
11:50 37.6 °F /  3.1 °C 36 °F /  2.2 °C 29.6in /  1001.4hPa ENE 0.9mph /  1.4km/h 3mph /  4.8km/h 94% 0in /  0.0mm 30 W/m2
11:55 37.6 °F /  3.1 °C 36 °F /  2.2 °C 29.6in /  1001.4hPa ENE 0.9mph /  1.4km/h 4mph /  6.4km/h 94% 0in /  0.0mm 28 W/m2
12:00 37.6 °F /  3.1 °C 36 °F /  2.2 °C 29.6in /  1001.4hPa North 2.9mph /  4.7km/h 4mph /  6.4km/h 94% 0in /  0.0mm 40 W/m2
12:05 37.6 °F /  3.1 °C 36 °F /  2.2 °C 29.6in /  1001.4hPa NNE 2mph /  3.2km/h 2mph /  3.2km/h 94% 0in /  0.0mm 42 W/m2
12:10 37.8 °F /  3.2 °C 36.5 °F /  2.5 °C 29.6in /  1001.4hPa NE 2mph /  3.2km/h 2mph /  3.2km/h 95% 0in /  0.0mm 28 W/m2
12:15 37.8 °F /  3.2 °C 36.5 °F /  2.5 °C 29.6in /  1001.0hPa ENE 2mph /  3.2km/h 2mph /  3.2km/h 95% 0in /  0.0mm 44 W/m2
12:20 37.8 °F /  3.2 °C 36.5 °F /  2.5 °C 29.6in /  1001.0hPa North 2mph /  3.2km/h 3mph /  4.8km/h 95% 0in /  0.0mm 63 W/m2
12:25 37.9 °F /  3.3 °C 36.7 °F /  2.6 °C 29.6in /  1001.0hPa Calm   4mph /  6.4km/h 95% 0in /  0.0mm 54 W/m2
12:30 37.9 °F /  3.3 °C 36.7 °F /  2.6 °C 29.6in /  1001.0hPa NE 2mph /  3.2km/h 4mph /  6.4km/h 95% 0in /  0.0mm 63 W/m2
12:35 38.1 °F /  3.4 °C 36.9 °F /  2.7 °C 29.6in /  1001.0hPa NNE 2mph /  3.2km/h 2mph /  3.2km/h 95% 0in /  0.0mm 69 W/m2
12:40 38.1 °F /  3.4 °C 36.9 °F /  2.7 °C 29.6in /  1000.7hPa NE 4.9mph /  7.9km/h 5mph /  8km/h 95% 0in /  0.0mm 90 W/m2
12:45 38.5 °F /  3.6 °C 37.2 °F /  2.9 °C 29.6in /  1000.7hPa NNE 0.9mph /  1.4km/h 3mph /  4.8km/h 95% 0in /  0.0mm 56 W/m2
12:50 38.5 °F /  3.6 °C 37.2 °F /  2.9 °C 29.6in /  1000.7hPa ENE 0.9mph /  1.4km/h 3mph /  4.8km/h 95% 0in /  0.0mm 46 W/m2
12:55 38.5 °F /  3.6 °C 37.2 °F /  2.9 °C 29.6in /  1000.7hPa NNW 2mph /  3.2km/h 3mph /  4.8km/h 95% 0in /  0.0mm 33 W/m2
13:00 38.7 °F /  3.7 °C 37 °F /  2.8 °C 29.6in /  1000.7hPa NE 0.9mph /  1.4km/h 2mph /  3.2km/h 94% 0in /  0.0mm 46 W/m2
13:05 38.7 °F /  3.7 °C 37 °F /  2.8 °C 29.6in /  1000.7hPa ENE 2mph /  3.2km/h 3mph /  4.8km/h 94% 0in /  0.0mm 49 W/m2
13:10 38.7 °F /  3.7 °C 37 °F /  2.8 °C 29.6in /  1000.7hPa NNW 2mph /  3.2km/h 4mph /  6.4km/h 94% 0in /  0.0mm 49 W/m2
13:15 38.8 °F /  3.8 °C 37.2 °F /  2.9 °C 29.6in /  1000.7hPa NNE 0.9mph /  1.4km/h 2mph /  3.2km/h 94% 0in /  0.0mm 69 W/m2
13:20 38.8 °F /  3.8 °C 37.2 °F /  2.9 °C 29.6in /  1000.7hPa North 2mph /  3.2km/h 2mph /  3.2km/h 94% 0in /  0.0mm 33 W/m2
13:25 39 °F /  3.9 °C 37.4 °F /  3 °C 29.6in /  1000.7hPa North 0.9mph /  1.4km/h 4mph /  6.4km/h 94% 0in /  0.0mm 93 W/m2
13:30 39 °F /  3.9 °C 37.4 °F /  3 °C 29.6in /  1000.7hPa NNE 0.9mph /  1.4km/h 3mph /  4.8km/h 94% 0in /  0.0mm 97 W/m2
13:35 39.2 °F /  4 °C 37.6 °F /  3.1 °C 29.6in /  1000.7hPa North 2.9mph /  4.7km/h 4mph /  6.4km/h 94% 0in /  0.0mm 53 W/m2
13:40 39.4 °F /  4.1 °C 37.8 °F /  3.2 °C 29.5in /  1000.3hPa NNW 0.9mph /  1.4km/h 3mph /  4.8km/h 94% 0in /  0.0mm 44 W/m2
13:45 39.4 °F /  4.1 °C 37.8 °F /  3.2 °C 29.5in /  1000.3hPa ENE 2mph /  3.2km/h 5mph /  8km/h 94% 0in /  0.0mm 25 W/m2
13:50 39.4 °F /  4.1 °C 37.8 °F /  3.2 °C 29.5in /  1000.3hPa NE 0.9mph /  1.4km/h 2mph /  3.2km/h 94% 0in /  0.0mm 21 W/m2
13:55 39.4 °F /  4.1 °C 37.6 °F /  3.1 °C 29.5in /  1000.3hPa ENE 4mph /  6.4km/h 5mph /  8km/h 93% 0in /  0.0mm 39 W/m2
14:00 39.4 °F /  4.1 °C 37.8 °F /  3.2 °C 29.5in /  1000.3hPa Calm   2mph /  3.2km/h 94% 0in /  0.0mm 42 W/m2
14:05 39.6 °F /  4.2 °C 37.9 °F /  3.3 °C 29.5in /  1000.3hPa NE 2mph /  3.2km/h 4mph /  6.4km/h 94% 0in /  0.0mm 35 W/m2
14:10 39.6 °F /  4.2 °C 37.9 °F /  3.3 °C 29.5in /  1000.3hPa ENE 2mph /  3.2km/h 2mph /  3.2km/h 94% 0in /  0.0mm 40 W/m2
14:15 39.6 °F /  4.2 °C 37.9 °F /  3.3 °C 29.5in /  1000.3hPa NNE 2mph /  3.2km/h 4mph /  6.4km/h 94% 0in /  0.0mm 40 W/m2
14:20 39.7 °F /  4.3 °C 38.1 °F /  3.4 °C 29.5in /  1000.3hPa NW 0.9mph /  1.4km/h 1mph /  1.6km/h 94% 0in /  0.0mm 35 W/m2
14:25 39.7 °F /  4.3 °C 38.1 °F /  3.4 °C 29.5in /  1000.3hPa Calm   3mph /  4.8km/h 94% 0in /  0.0mm 28 W/m2
14:30 39.7 °F /  4.3 °C 38.1 °F /  3.4 °C 29.5in /  1000.3hPa ENE 2mph /  3.2km/h 2mph /  3.2km/h 94% 0in /  0.0mm 23 W/m2
14:35 39.7 °F /  4.3 °C 37.9 °F /  3.3 °C 29.5in /  1000.3hPa East 2mph /  3.2km/h 3mph /  4.8km/h 93% 0in /  0.0mm 33 W/m2
14:40 39.7 °F /  4.3 °C 37.9 °F /  3.3 °C 29.5in /  1000.3hPa East 2mph /  3.2km/h 6mph /  9.7km/h 93% 0in /  0.0mm 26 W/m2
14:45 39.7 °F /  4.3 °C 37.9 °F /  3.3 °C 29.5in /  1000.3hPa SSE 2mph /  3.2km/h 6mph /  9.7km/h 93% 0in /  0.0mm 16 W/m2
14:50 39.6 °F /  4.2 °C 37.9 °F /  3.3 °C 29.5in /  1000.3hPa ENE 0.9mph /  1.4km/h 3mph /  4.8km/h 94% 0in /  0.0mm 12 W/m2
14:55 39.6 °F /  4.2 °C 37.9 °F /  3.3 °C 29.5in /  1000.3hPa East 2mph /  3.2km/h 4mph /  6.4km/h 94% 0in /  0.0mm 18 W/m2
15:00 39.4 °F /  4.1 °C 37.8 °F /  3.2 °C 29.5in /  1000.3hPa ESE 2.9mph /  4.7km/h 4mph /  6.4km/h 94% 0in /  0.0mm 19 W/m2
15:05 39.4 °F /  4.1 °C 37.8 °F /  3.2 °C 29.5in /  1000.3hPa ENE 2mph /  3.2km/h 2mph /  3.2km/h 94% 0in /  0.0mm 16 W/m2
15:10 39.2 °F /  4 °C 37.6 °F /  3.1 °C 29.5in /  1000.3hPa NE 0.9mph /  1.4km/h 3mph /  4.8km/h 94% 0in /  0.0mm 16 W/m2
15:15 39.2 °F /  4 °C 37.6 °F /  3.1 °C 29.5in /  1000.3hPa NNE 2mph /  3.2km/h 4mph /  6.4km/h 94% 0in /  0.0mm 12 W/m2
15:21 39.2 °F /  4 °C 37.6 °F /  3.1 °C 29.5in /  1000.3hPa ENE 4mph /  6.4km/h 4mph /  6.4km/h 94% 0in /  0.0mm 11 W/m2
15:26 39.2 °F /  4 °C 37.6 °F /  3.1 °C 29.5in /  1000.3hPa ENE 2mph /  3.2km/h 3mph /  4.8km/h 94% 0in /  0.0mm 11 W/m2
15:31 39.2 °F /  4 °C 37.6 °F /  3.1 °C 29.6in /  1000.7hPa Calm   6mph /  9.7km/h 94% 0in /  0.0mm 7 W/m2
15:36 39.2 °F /  4 °C 37.6 °F /  3.1 °C 29.6in /  1000.7hPa ENE 2mph /  3.2km/h 4mph /  6.4km/h 94% 0in /  0.0mm 7 W/m2
15:41 39.2 °F /  4 °C 37.6 °F /  3.1 °C 29.6in /  1000.7hPa Calm   5mph /  8km/h 94% 0in /  0.0mm 7 W/m2
15:46 39.2 °F /  4 °C 37.6 °F /  3.1 °C 29.6in /  1000.7hPa NE 0.9mph /  1.4km/h 3mph /  4.8km/h 94% 0in /  0.0mm 9 W/m2
15:51 39.2 °F /  4 °C 37.6 °F /  3.1 °C 29.6in /  1000.7hPa ENE 2mph /  3.2km/h 3mph /  4.8km/h 94% 0in /  0.0mm 9 W/m2
15:56 39.2 °F /  4 °C 37.6 °F /  3.1 °C 29.6in /  1000.7hPa NW 2mph /  3.2km/h 4mph /  6.4km/h 94% 0in /  0.0mm 9 W/m2
16:01 39.2 °F /  4 °C 37.6 °F /  3.1 °C 29.6in /  1000.7hPa NE 2mph /  3.2km/h 3mph /  4.8km/h 94% 0in /  0.0mm 9 W/m2
16:06 39.2 °F /  4 °C 37.6 °F /  3.1 °C 29.6in /  1000.7hPa North 2mph /  3.2km/h 4mph /  6.4km/h 94% 0in /  0.0mm 11 W/m2
16:11 39.2 °F /  4 °C 37.6 °F /  3.1 °C 29.6in /  1000.7hPa ENE 2.9mph /  4.7km/h 3mph /  4.8km/h 94% 0.01in /  0.2mm 9 W/m2
16:16 39 °F /  3.9 °C 37.2 °F /  2.9 °C 29.6in /  1000.7hPa North 2mph /  3.2km/h 4mph /  6.4km/h 93% 0.01in /  0.2mm 7 W/m2
16:21 39 °F /  3.9 °C 37.2 °F /  2.9 °C 29.6in /  1000.7hPa North 0.9mph /  1.4km/h 2mph /  3.2km/h 93% 0.01in /  0.2mm 5 W/m2
16:26 38.8 °F /  3.8 °C 37 °F /  2.8 °C 29.6in /  1001.0hPa Calm   4mph /  6.4km/h 93% 0.01in /  0.2mm 7 W/m2
16:31 38.7 °F /  3.7 °C 36.9 °F /  2.7 °C 29.6in /  1000.7hPa North 4mph /  6.4km/h 4mph /  6.4km/h 93% 0.01in /  0.2mm 11 W/m2
16:36 38.7 °F /  3.7 °C 36.9 °F /  2.7 °C 29.6in /  1000.7hPa NE 0.9mph /  1.4km/h 5mph /  8km/h 93% 0.01in /  0.2mm 7 W/m2
16:41 38.3 °F /  3.5 °C 36.5 °F /  2.5 °C 29.6in /  1001.0hPa North 2mph /  3.2km/h 6mph /  9.7km/h 93% 0.01in /  0.2mm 5 W/m2
16:46 37.9 °F /  3.3 °C 36.1 °F /  2.3 °C 29.6in /  1001.0hPa NW 2mph /  3.2km/h 5mph /  8km/h 93% 0.01in /  0.2mm 0 W/m2
16:51 37.9 °F /  3.3 °C 36.1 °F /  2.3 °C 29.6in /  1001.0hPa North 2mph /  3.2km/h 6mph /  9.7km/h 93% 0.01in /  0.2mm 0 W/m2
16:56 37.8 °F /  3.2 °C 36 °F /  2.2 °C 29.6in /  1001.0hPa WNW 2.9mph /  4.7km/h 4mph /  6.4km/h 93% 0.01in /  0.2mm 0 W/m2
17:01 37.8 °F /  3.2 °C 36 °F /  2.2 °C 29.6in /  1001.0hPa NNE 2.9mph /  4.7km/h 6mph /  9.7km/h 93% 0.01in /  0.2mm 0 W/m2
17:06 37.6 °F /  3.1 °C 35.8 °F /  2.1 °C 29.6in /  1001.0hPa ENE 2.9mph /  4.7km/h 5mph /  8km/h 93% 0.01in /  0.2mm 0 W/m2
17:11 37.4 °F /  3 °C 35.6 °F /  2 °C 29.6in /  1001.0hPa NE 0.9mph /  1.4km/h 3mph /  4.8km/h 93% 0in /  0.0mm 0 W/m2
17:16 37.2 °F /  2.9 °C 35.4 °F /  1.9 °C 29.6in /  1001.0hPa ENE 2mph /  3.2km/h 7mph /  11.3km/h 93% 0in /  0.0mm 0 W/m2
17:21 37.2 °F /  2.9 °C 35.4 °F /  1.9 °C 29.6in /  1001.0hPa Calm   2mph /  3.2km/h 93% 0in /  0.0mm 0 W/m2
17:26 37 °F /  2.8 °C 35.2 °F /  1.8 °C 29.6in /  1001.4hPa Calm   2mph /  3.2km/h 93% 0in /  0.0mm 0 W/m2
17:31 37 °F /  2.8 °C 35.2 °F /  1.8 °C 29.6in /  1001.0hPa North 0.9mph /  1.4km/h 5mph /  8km/h 93% 0in /  0.0mm 0 W/m2
17:36 37 °F /  2.8 °C 35.2 °F /  1.8 °C 29.6in /  1001.0hPa WNW 2mph /  3.2km/h 3mph /  4.8km/h 93% 0in /  0.0mm 0 W/m2
17:41 37 °F /  2.8 °C 35.2 °F /  1.8 °C 29.6in /  1001.0hPa Calm   3mph /  4.8km/h 93% 0in /  0.0mm 0 W/m2
17:46 36.9 °F /  2.7 °C 35.1 °F /  1.7 °C 29.6in /  1001.0hPa SSE 2mph /  3.2km/h 2mph /  3.2km/h 93% 0in /  0.0mm 0 W/m2
17:51 37 °F /  2.8 °C 35.2 °F /  1.8 °C 29.6in /  1001.4hPa NNW 2.9mph /  4.7km/h 3mph /  4.8km/h 93% 0in /  0.0mm 0 W/m2
17:56 36.9 °F /  2.7 °C 35.1 °F /  1.7 °C 29.6in /  1001.4hPa ENE 2mph /  3.2km/h 2mph /  3.2km/h 93% 0in /  0.0mm 0 W/m2
18:01 36.9 °F /  2.7 °C 35.1 °F /  1.7 °C 29.6in /  1001.4hPa NE 0.9mph /  1.4km/h 4mph /  6.4km/h 93% 0in /  0.0mm 0 W/m2
18:06 36.9 °F /  2.7 °C 35.1 °F /  1.7 °C 29.6in /  1001.4hPa NE 0.9mph /  1.4km/h 2mph /  3.2km/h 93% 0in /  0.0mm 0 W/m2
18:11 36.9 °F /  2.7 °C 35.1 °F /  1.7 °C 29.6in /  1001.4hPa Calm   3mph /  4.8km/h 93% 0in /  0.0mm 0 W/m2
18:16 36.9 °F /  2.7 °C 35.2 °F /  1.8 °C 29.6in /  1001.4hPa Calm   1mph /  1.6km/h 94% 0in /  0.0mm 0 W/m2
18:21 36.9 °F /  2.7 °C 35.2 °F /  1.8 °C 29.6in /  1001.4hPa Calm   1mph /  1.6km/h 94% 0in /  0.0mm 0 W/m2
18:26 36.9 °F /  2.7 °C 35.2 °F /  1.8 °C 29.6in /  1001.4hPa NE 0.9mph /  1.4km/h 3mph /  4.8km/h 94% 0in /  0.0mm 0 W/m2
18:31 36.9 °F /  2.7 °C 35.2 °F /  1.8 °C 29.6in /  1001.4hPa ENE 4mph /  6.4km/h 4mph /  6.4km/h 94% 0in /  0.0mm 0 W/m2
18:36 36.9 °F /  2.7 °C 35.2 °F /  1.8 °C 29.6in /  1001.4hPa ENE 0.9mph /  1.4km/h 2mph /  3.2km/h 94% 0in /  0.0mm 0 W/m2
18:41 36.9 °F /  2.7 °C 35.2 °F /  1.8 °C 29.6in /  1001.4hPa Calm     94% 0in /  0.0mm 0 W/m2
18:46 36.9 °F /  2.7 °C 35.2 °F /  1.8 °C 29.6in /  1001.4hPa Calm     94% 0in /  0.0mm 0 W/m2
18:51 36.9 °F /  2.7 °C 35.2 °F /  1.8 °C 29.6in /  1001.4hPa NW 2mph /  3.2km/h 3mph /  4.8km/h 94% 0in /  0.0mm 0 W/m2
18:56 36.9 °F /  2.7 °C 35.2 °F /  1.8 °C 29.6in /  1001.4hPa NE 0.9mph /  1.4km/h 2mph /  3.2km/h 94% 0in /  0.0mm 0 W/m2
19:01 36.7 °F /  2.6 °C 35.1 °F /  1.7 °C 29.6in /  1001.4hPa Calm   1mph /  1.6km/h 94% 0in /  0.0mm 0 W/m2
19:06 36.9 °F /  2.7 °C 35.2 °F /  1.8 °C 29.6in /  1001.4hPa NE 2mph /  3.2km/h 2mph /  3.2km/h 94% 0in /  0.0mm 0 W/m2
19:11 36.9 °F /  2.7 °C 35.2 °F /  1.8 °C 29.6in /  1001.4hPa ENE 2mph /  3.2km/h 2mph /  3.2km/h 94% 0in /  0.0mm 0 W/m2
19:16 36.9 °F /  2.7 °C 35.2 °F /  1.8 °C 29.6in /  1001.4hPa East 2mph /  3.2km/h 3mph /  4.8km/h 94% 0in /  0.0mm 0 W/m2
19:21 36.9 °F /  2.7 °C 35.6 °F /  2 °C 29.6in /  1001.4hPa Calm   2mph /  3.2km/h 95% 0in /  0.0mm 0 W/m2
19:26 36.9 °F /  2.7 °C 35.6 °F /  2 °C 29.6in /  1001.4hPa East 0.9mph /  1.4km/h 3mph /  4.8km/h 95% 0in /  0.0mm 0 W/m2
19:31 36.7 °F /  2.6 °C 35.4 °F /  1.9 °C 29.6in /  1001.7hPa ESE 2.9mph /  4.7km/h 4mph /  6.4km/h 95% 0in /  0.0mm 0 W/m2
19:36 36.7 °F /  2.6 °C 35.4 °F /  1.9 °C 29.6in /  1001.7hPa Calm   1mph /  1.6km/h 95% 0in /  0.0mm 0 W/m2
19:41 36.9 °F /  2.7 °C 35.6 °F /  2 °C 29.6in /  1001.7hPa West 6mph /  9.7km/h 6mph /  9.7km/h 95% 0in /  0.0mm 0 W/m2
19:46 36.9 °F /  2.7 °C 35.6 °F /  2 °C 29.6in /  1001.7hPa West 2mph /  3.2km/h 6mph /  9.7km/h 95% 0in /  0.0mm 0 W/m2
19:51 36.9 °F /  2.7 °C 35.6 °F /  2 °C 29.6in /  1001.7hPa West 0.9mph /  1.4km/h 2mph /  3.2km/h 95% 0in /  0.0mm 0 W/m2
19:56 36.9 °F /  2.7 °C 35.6 °F /  2 °C 29.6in /  1001.7hPa WSW 2mph /  3.2km/h 6mph /  9.7km/h 95% 0in /  0.0mm 0 W/m2
20:01 36.9 °F /  2.7 °C 35.6 °F /  2 °C 29.6in /  1001.7hPa West 0.9mph /  1.4km/h 4mph /  6.4km/h 95% 0in /  0.0mm 0 W/m2
20:06 36.9 °F /  2.7 °C 35.6 °F /  2 °C 29.6in /  1001.7hPa Calm   2mph /  3.2km/h 95% 0in /  0.0mm 0 W/m2
20:11 36.9 °F /  2.7 °C 35.6 °F /  2 °C 29.6in /  1002.0hPa Calm   4mph /  6.4km/h 95% 0in /  0.0mm 0 W/m2
20:16 37 °F /  2.8 °C 35.8 °F /  2.1 °C 29.6in /  1002.0hPa Calm   2mph /  3.2km/h 95% 0in /  0.0mm 0 W/m2
20:21 37 °F /  2.8 °C 35.8 °F /  2.1 °C 29.6in /  1002.0hPa Calm   3mph /  4.8km/h 95% 0in /  0.0mm 0 W/m2
20:26 37 °F /  2.8 °C 35.8 °F /  2.1 °C 29.6in /  1002.0hPa WNW 0.9mph /  1.4km/h 2mph /  3.2km/h 95% 0in /  0.0mm 0 W/m2
20:31 37 °F /  2.8 °C 36 °F /  2.2 °C 29.6in /  1002.0hPa West 4mph /  6.4km/h 9mph /  14.5km/h 96% 0in /  0.0mm 0 W/m2
20:36 37 °F /  2.8 °C 36 °F /  2.2 °C 29.6in /  1002.0hPa West 4mph /  6.4km/h 4mph /  6.4km/h 96% 0in /  0.0mm 0 W/m2
20:41 37 °F /  2.8 °C 36 °F /  2.2 °C 29.6in /  1002.4hPa West 2.9mph /  4.7km/h 8mph /  12.9km/h 96% 0in /  0.0mm 0 W/m2
20:46 37 °F /  2.8 °C 36 °F /  2.2 °C 29.6in /  1002.4hPa WNW 2.9mph /  4.7km/h 6mph /  9.7km/h 96% 0in /  0.0mm 0 W/m2
20:51 36.9 °F /  2.7 °C 35.6 °F /  2 °C 29.6in /  1002.4hPa WSW 4.9mph /  7.9km/h 6mph /  9.7km/h 95% 0in /  0.0mm 0 W/m2
20:56 36.9 °F /  2.7 °C 35.6 °F /  2 °C 29.6in /  1002.4hPa West 6mph /  9.7km/h 6mph /  9.7km/h 95% 0in /  0.0mm 0 W/m2
21:01 36.7 °F /  2.6 °C 35.4 °F /  1.9 °C 29.6in /  1002.4hPa NW 2.9mph /  4.7km/h 7mph /  11.3km/h 95% 0in /  0.0mm 0 W/m2
21:06 36.7 °F /  2.6 °C 35.4 °F /  1.9 °C 29.6in /  1002.4hPa WNW 6mph /  9.7km/h 6mph /  9.7km/h 95% 0in /  0.0mm 0 W/m2
21:11 36.7 °F /  2.6 °C 35.4 °F /  1.9 °C 29.6in /  1002.7hPa West 0.9mph /  1.4km/h 4mph /  6.4km/h 95% 0in /  0.0mm 0 W/m2
21:17 36.7 °F /  2.6 °C 35.4 °F /  1.9 °C 29.6in /  1002.7hPa WNW 0.9mph /  1.4km/h 4mph /  6.4km/h 95% 0in /  0.0mm 0 W/m2
21:22 36.7 °F /  2.6 °C 35.4 °F /  1.9 °C 29.6in /  1002.7hPa West 0.9mph /  1.4km/h 4mph /  6.4km/h 95% 0in /  0.0mm 0 W/m2
21:27 36.5 °F /  2.5 °C 35.2 °F /  1.8 °C 29.6in /  1002.7hPa West 2.9mph /  4.7km/h 8mph /  12.9km/h 95% 0in /  0.0mm 0 W/m2
21:32 36.5 °F /  2.5 °C 35.2 °F /  1.8 °C 29.6in /  1002.7hPa West 0.9mph /  1.4km/h 6mph /  9.7km/h 95% 0in /  0.0mm 0 W/m2
21:37 36.5 °F /  2.5 °C 35.2 °F /  1.8 °C 29.6in /  1003.0hPa WSW 4.9mph /  7.9km/h 8mph /  12.9km/h 95% 0in /  0.0mm 0 W/m2
21:42 36.5 °F /  2.5 °C 35.2 °F /  1.8 °C 29.6in /  1003.0hPa WNW 0.9mph /  1.4km/h 4mph /  6.4km/h 95% 0in /  0.0mm 0 W/m2
21:47 36.5 °F /  2.5 °C 35.2 °F /  1.8 °C 29.6in /  1003.0hPa WNW 2mph /  3.2km/h 3mph /  4.8km/h 95% 0in /  0.0mm 0 W/m2
21:52 36.3 °F /  2.4 °C 35.1 °F /  1.7 °C 29.6in /  1003.0hPa WNW 2mph /  3.2km/h 8mph /  12.9km/h 95% 0in /  0.0mm 0 W/m2
21:57 36.3 °F /  2.4 °C 35.1 °F /  1.7 °C 29.6in /  1003.0hPa WNW 2.9mph /  4.7km/h 4mph /  6.4km/h 95% 0in /  0.0mm 0 W/m2
22:02 36.3 °F /  2.4 °C 35.1 °F /  1.7 °C 29.6in /  1003.0hPa WSW 0.9mph /  1.4km/h 8mph /  12.9km/h 95% 0in /  0.0mm 0 W/m2
22:07 36.3 °F /  2.4 °C 35.1 °F /  1.7 °C 29.6in /  1003.0hPa West 0.9mph /  1.4km/h 3mph /  4.8km/h 95% 0in /  0.0mm 0 W/m2
22:12 36.1 °F /  2.3 °C 34.9 °F /  1.6 °C 29.6in /  1003.0hPa WSW 6mph /  9.7km/h 6mph /  9.7km/h 95% 0in /  0.0mm 0 W/m2
22:17 36.1 °F /  2.3 °C 34.9 °F /  1.6 °C 29.6in /  1003.4hPa West 2.9mph /  4.7km/h 3mph /  4.8km/h 95% 0in /  0.0mm 0 W/m2
22:22 36.1 °F /  2.3 °C 34.9 °F /  1.6 °C 29.6in /  1003.4hPa West 2mph /  3.2km/h 4mph /  6.4km/h 95% 0in /  0.0mm 0 W/m2
22:27 36.1 °F /  2.3 °C 34.9 °F /  1.6 °C 29.6in /  1003.4hPa WSW 2.9mph /  4.7km/h 6mph /  9.7km/h 95% 0in /  0.0mm 0 W/m2
22:32 36.1 °F /  2.3 °C 34.9 °F /  1.6 °C 29.6in /  1003.4hPa West 2mph /  3.2km/h 4mph /  6.4km/h 95% 0in /  0.0mm 0 W/m2
22:37 36.1 °F /  2.3 °C 34.9 °F /  1.6 °C 29.6in /  1003.4hPa WSW 0.9mph /  1.4km/h 3mph /  4.8km/h 95% 0in /  0.0mm 0 W/m2
22:42 36 °F /  2.2 °C 34.7 °F /  1.5 °C 29.6in /  1003.4hPa WNW 0.9mph /  1.4km/h 6mph /  9.7km/h 95% 0in /  0.0mm 0 W/m2
22:47 36 °F /  2.2 °C 34.7 °F /  1.5 °C 29.6in /  1003.4hPa WNW 0.9mph /  1.4km/h 4mph /  6.4km/h 95% 0in /  0.0mm 0 W/m2
22:52 36 °F /  2.2 °C 34.7 °F /  1.5 °C 29.6in /  1003.7hPa West 2mph /  3.2km/h 6mph /  9.7km/h 95% 0in /  0.0mm 0 W/m2
22:57 36 °F /  2.2 °C 34.7 °F /  1.5 °C 29.6in /  1003.4hPa West 2.9mph /  4.7km/h 6mph /  9.7km/h 95% 0in /  0.0mm 0 W/m2
23:02 36 °F /  2.2 °C 34.7 °F /  1.5 °C 29.6in /  1003.7hPa WSW 6.9mph /  11.1km/h 9mph /  14.5km/h 95% 0in /  0.0mm 0 W/m2
23:07 36 °F /  2.2 °C 34.7 °F /  1.5 °C 29.6in /  1003.7hPa WNW 4mph /  6.4km/h 6mph /  9.7km/h 95% 0in /  0.0mm 0 W/m2
23:12 36 °F /  2.2 °C 34.3 °F /  1.3 °C 29.6in /  1003.7hPa West 2.9mph /  4.7km/h 9mph /  14.5km/h 94% 0in /  0.0mm 0 W/m2
23:17 36 °F /  2.2 °C 34.3 °F /  1.3 °C 29.6in /  1003.7hPa West 2.9mph /  4.7km/h 7mph /  11.3km/h 94% 0in /  0.0mm 0 W/m2
23:22 36 °F /  2.2 °C 34.3 °F /  1.3 °C 29.6in /  1003.7hPa West 2.9mph /  4.7km/h 7mph /  11.3km/h 94% 0in /  0.0mm 0 W/m2
23:27 36 °F /  2.2 °C 34.3 °F /  1.3 °C 29.6in /  1003.7hPa West 4mph /  6.4km/h 7mph /  11.3km/h 94% 0in /  0.0mm 0 W/m2
23:32 36 °F /  2.2 °C 34.3 °F /  1.3 °C 29.6in /  1003.7hPa West 0.9mph /  1.4km/h 7mph /  11.3km/h 94% 0in /  0.0mm 0 W/m2
23:37 36 °F /  2.2 °C 34.3 °F /  1.3 °C 29.6in /  1003.7hPa WSW 2.9mph /  4.7km/h 8mph /  12.9km/h 94% 0in /  0.0mm 0 W/m2
23:42 36 °F /  2.2 °C 34.3 °F /  1.3 °C 29.6in /  1003.7hPa West 6mph /  9.7km/h 6mph /  9.7km/h 94% 0in /  0.0mm 0 W/m2
23:47 35.8 °F /  2.1 °C 34.2 °F /  1.2 °C 29.6in /  1003.7hPa WNW 2.9mph /  4.7km/h 7mph /  11.3km/h 94% 0in /  0.0mm 0 W/m2
23:52 35.8 °F /  2.1 °C 34.2 °F /  1.2 °C 29.7in /  1004.1hPa WNW 4mph /  6.4km/h 6mph /  9.7km/h 94% 0in /  0.0mm 0 W/m2
23:57 35.8 °F /  2.1 °C 34.2 °F /  1.2 °C 29.7in /  1004.1hPa WNW 2.9mph /  4.7km/h 6mph /  9.7km/h 94% 0in /  0.0mm 0 W/m2
Juneau County Weather
Compliments of Weather Underground - 4 mb